ADDS METAR Data INFO
IDs: Format: Raw Decoded Include TAF

Data at: 0856 UTC 19 Jun 2018

KEVB 190147Z 00000KT 10SM SKC 25/20 A3009 RMK LAST
KEVB 190047Z 13006KT 10SM SKC 26/20 A3008
KEVB 182347Z 13006KT 10SM SKC 28/20 A3008
KEVB 182247Z 13008KT 10SM SKC 28/22 A3009
KEVB 182147Z 12008KT 10SM FEW021 29/23 A3009
KEVB 182047Z 12008KT 10SM FEW021 30/24 A3009
KEVB 181947Z 11008KT 10SM SCT021 29/23 A3011
KEVB 181847Z 11008KT 10SM SCT018 30/23 A3013
KEVB 181747Z 11008KT 10SM SCT018 30/24 A3014
KEVB 181647Z 07010KT 10SM SCT018 30/24 A3015
KEVB 181547Z 07007KT 10SM SCT017 30/24 A3016
KEVB 181447Z 06007KT 10SM SCT017 29/24 A3016
KEVB 181347Z 06005KT 10SM SCT017 29/24 A3015
KEVB 181247Z 06007KT 10SM BKN015 29/24 A3015
KEVB 181147Z 00000KT 10SM SKC 27/25 A3014
KEVB 181047Z 00000KT 10SM SKC 24/24 A3013 RMK FIRST
KEVB 180147Z 00000KT 10SM SKC 27/23 A3013 RMK LAST
KEVB 180047Z 00000KT 10SM SKC 27/24 A3011
KEVB 172347Z 07008KT 10SM SKC 27/24 A3010
KEVB 172247Z 07008KT 10SM SKC 29/24 A3010
KEVB 172147Z 07008KT 10SM FEW014 29/24 A3012